»·PEaware :: N370BC KTRM-KBXK

N370BC :: KTRM-KBXK

FLIGHT INFORMATION

Flight Status: Arrived
Operator: Privately registered:
United States
More flights under this callsign
Pilot: Drew L. (13237)
Aircraft: BOEING 737-200
(B732)
More flights by this aircraft type
Origin: KTRM Desert Resorts Regl
United States
Destination: KBXK Buckeye Mun
United States
More flights between these airports :: More routes between these airports
Route: BLH BXK
File this flight plan on PilotEdge
Remarks:
Altitude:
(Current/Filed)
21,000ft
Speed:
(Current/Filed)
0kts
Departed: 13-Aug-18 04:14 PM
Arrived: 13-Aug-18 04:50 PM
Distance/Time
Traveled:
174nm/0:36
Distance/Time
To Go:
Arrived

Flight Plot

Page will automatically refresh every two minutes.

Flight plan parsing failed; only flown route is shown


Map Options




Map Legend


Flown Route
Filed Route
Departure Airport
Arrival Airport
Navaid (VOR, NDB)
Fix

Horizontal Profiles

Position Reports

Time Latitude Longitude Heading Altitude Ground
Speed
13-Aug-18 16:05 33.638329 -116.158785 1 -104ft 0kts
13-Aug-18 16:06 33.638329 -116.158785 1 -104ft 0kts
13-Aug-18 16:07 33.638329 -116.158785 1 -104ft 0kts
13-Aug-18 16:08 33.638329 -116.158785 1 -104ft 0kts
13-Aug-18 16:09 33.638329 -116.158785 1 -104ft 0kts
13-Aug-18 16:10 33.638329 -116.158785 1 -104ft 0kts
13-Aug-18 16:11 33.638329 -116.158785 1 -104ft 0kts
13-Aug-18 16:12 33.638329 -116.158785 1 -104ft 0kts
13-Aug-18 16:13 33.638337 -116.158785 1 -104ft 0kts
13-Aug-18 16:14 33.639027 -116.157374 87 -104ft 4kts
13-Aug-18 16:15 33.629583 -116.156420 179 -104ft 126kts
13-Aug-18 16:16 33.582559 -116.157068 171 2122ft 199kts
13-Aug-18 16:17 33.547870 -116.104356 144 5445ft 224kts
13-Aug-18 16:18 33.505435 -116.055459 93 8670ft 238kts
13-Aug-18 16:19 33.527394 -115.972816 71 11266ft 276kts
13-Aug-18 16:20 33.554286 -115.885195 70 14119ft 288kts
13-Aug-18 16:21 33.584689 -115.790566 69 15529ft 333kts
13-Aug-18 16:22 33.613265 -115.682046 97 15542ft 362kts
13-Aug-18 16:23 33.606925 -115.561135 92 15518ft 365kts
13-Aug-18 16:24 33.604762 -115.439467 91 15518ft 365kts
13-Aug-18 16:25 33.603319 -115.319379 92 17521ft 352kts
13-Aug-18 16:26 33.601679 -115.200951 92 19745ft 363kts
13-Aug-18 16:27 33.600198 -115.077437 92 21062ft 389kts
13-Aug-18 16:28 33.598550 -114.940475 91 20842ft 429kts
13-Aug-18 16:29 33.596732 -114.795364 91 20835ft 437kts
13-Aug-18 16:30 33.589519 -114.649658 94 20835ft 439kts
13-Aug-18 16:31 33.581219 -114.503342 94 20834ft 440kts
13-Aug-18 16:32 33.574034 -114.357241 91 20836ft 441kts
13-Aug-18 16:33 33.569374 -114.254439 95 20835ft 439kts
13-Aug-18 16:34 33.559211 -114.109095 96 20836ft 436kts
13-Aug-18 16:35 33.548326 -113.966279 96 20840ft 434kts
13-Aug-18 16:36 33.537554 -113.828318 96 20638ft 386kts
13-Aug-18 16:37 33.527511 -113.702194 95 18400ft 375kts
13-Aug-18 16:38 33.517685 -113.579916 95 15751ft 365kts
13-Aug-18 16:39 33.507998 -113.460626 95 13215ft 355kts
13-Aug-18 16:40 33.498505 -113.344988 95 11158ft 346kts
13-Aug-18 16:41 33.492168 -113.272780 96 10239ft 338kts
13-Aug-18 16:42 33.484992 -113.189223 96 9951ft 286kts
13-Aug-18 16:43 33.477700 -113.103668 96 9760ft 240kts
13-Aug-18 16:44 33.471014 -113.025368 93 8853ft 237kts
13-Aug-18 16:45 33.464168 -112.946309 94 7575ft 243kts
13-Aug-18 16:46 33.458491 -112.879940 94 6392ft 243kts
13-Aug-18 16:47 33.468980 -112.792708 71 5122ft 209kts
13-Aug-18 16:48 33.474952 -112.729533 87 3625ft 178kts
13-Aug-18 16:49 33.468514 -112.687421 143 2225ft 144kts
13-Aug-18 16:50 33.427213 -112.686029 183 1030ft 120kts
13-Aug-18 16:51 33.417342 -112.685246 66 1003ft 7kts
13-Aug-18 16:52 33.420818 -112.684845 63 1011ft 8kts
13-Aug-18 16:53 33.420316 -112.683775 182 1010ft 0kts
13-Aug-18 16:54 33.420316 -112.683775 182 1010ft 0kts
13-Aug-18 16:55 33.420316 -112.683775 182 1010ft 0kts
13-Aug-18 16:56 33.420316 -112.683775 182 1010ft 0kts
13-Aug-18 16:57 33.420316 -112.683775 182 1010ft 0kts
13-Aug-18 16:58 33.420316 -112.683775 182 1010ft 0kts
13-Aug-18 16:59 33.420316 -112.683775 182 1010ft 0kts
13-Aug-18 17:00 33.420316 -112.683775 182 1010ft 0kts
13-Aug-18 17:01 33.420316 -112.683775 182 1010ft 0kts
13-Aug-18 17:02 33.420316 -112.683775 182 1010ft 0kts
13-Aug-18 17:03 33.420316 -112.683775 182 1010ft 0kts
13-Aug-18 17:04 33.420316 -112.683775 182 1010ft 0kts
13-Aug-18 17:05 33.420316 -112.683774 182 1010ft 0kts

Navigation Log

Ident Type
Flight plan parsing failed, navigation log unavailable